Time;durP1;ratioP1;P1;durP2;ratioP2;P2;SDS_P1;SDS_P2;PMS_P1;PMS_P2;Temp;Humidity;BMP_temperature;BMP_pressure;BME280_temperature;BME280_humidity;BME280_pressure;Samples;Min_cycle;Max_cycle;Signal;HPM_P1;HPM_P2
2023/06/24 00:01:43;;;;;;;7.78;4.22;;;;;;;;;;5095864;28;20048;-73
2023/06/24 00:04:08;;;;;;;8.45;3.97;;;;;;;;;;5090172;28;20047;-72
2023/06/24 00:06:36;;;;;;;8.38;3.70;;;;;;;;;;5091171;28;20101;-71
2023/06/24 00:09:03;;;;;;;7.70;3.45;;;;;;;;;;5084973;28;20048;-72
2023/06/24 00:11:30;;;;;;;7.57;3.50;;;;;;;;;;5098926;28;20060;-73
2023/06/24 00:13:56;;;;;;;5.60;3.25;;;;;;;;;;5119783;27;20090;-73
2023/06/24 00:16:26;;;;;;;6.95;3.40;;;;;;;;;;5105150;28;20522;-74
2023/06/24 00:19:01;;;;;;;8.15;3.28;;;;;;;;;;5095894;27;20056;-73
2023/06/24 00:21:31;;;;;;;7.45;3.53;;;;;;;;;;5112090;27;20104;-74
2023/06/24 00:24:02;;;;;;;9.27;3.47;;;;;;;;;;5102286;27;20051;-74
2023/06/24 00:26:28;;;;;;;9.55;3.60;;;;;;;;;;5117695;27;20499;-73
2023/06/24 00:28:54;;;;;;;12.07;3.50;;;;;;;;;;5108086;27;20047;-73
2023/06/24 00:31:20;;;;;;;9.35;3.53;;;;;;;;;;5114565;27;20104;-72
2023/06/24 00:33:47;;;;;;;8.93;3.55;;;;;;;;;;5107936;28;20054;-72
2023/06/24 00:36:13;;;;;;;9.90;3.17;;;;;;;;;;5103433;28;20097;-74
2023/06/24 00:38:39;;;;;;;5.68;3.17;;;;;;;;;;5105885;27;20056;-71
2023/06/24 00:41:07;;;;;;;7.97;3.42;;;;;;;;;;5111306;28;20415;-72
2023/06/24 00:43:33;;;;;;;6.72;3.53;;;;;;;;;;5114700;27;20093;-72
2023/06/24 00:46:00;;;;;;;14.10;3.63;;;;;;;;;;5112435;27;20056;-71
2023/06/24 00:48:27;;;;;;;8.07;3.13;;;;;;;;;;5115149;27;20040;-70
2023/06/24 00:50:53;;;;;;;5.47;2.97;;;;;;;;;;5116105;27;20506;-71
2023/06/24 00:53:20;;;;;;;8.20;3.17;;;;;;;;;;5109542;27;20047;-75
2023/06/24 00:55:46;;;;;;;6.85;3.33;;;;;;;;;;5107402;27;20062;-74
2023/06/24 00:58:16;;;;;;;8.25;3.15;;;;;;;;;;5106889;27;20047;-72
2023/06/24 01:00:46;;;;;;;6.40;2.90;;;;;;;;;;5085044;28;20051;-73
2023/06/24 01:03:16;;;;;;;7.35;3.03;;;;;;;;;;5105329;27;20031;-73
2023/06/24 01:05:44;;;;;;;6.57;3.30;;;;;;;;;;5109564;27;20052;-72
2023/06/24 01:08:15;;;;;;;6.32;3.10;;;;;;;;;;5104550;27;20510;-73
2023/06/24 01:10:42;;;;;;;5.07;2.72;;;;;;;;;;5089664;27;20082;-71
2023/06/24 01:13:08;;;;;;;9.10;3.45;;;;;;;;;;5088606;28;20075;-72
2023/06/24 01:15:35;;;;;;;5.57;2.72;;;;;;;;;;5069289;28;20063;-71
2023/06/24 01:18:04;;;;;;;7.10;3.55;;;;;;;;;;5087892;28;20040;-72
2023/06/24 01:20:46;;;;;;;8.02;3.00;;;;;;;;;;5066998;28;20056;-69
2023/06/24 01:23:40;;;;;;;7.03;3.08;;;;;;;;;;5083401;28;20560;-72
2023/06/24 01:26:18;;;;;;;7.82;3.15;;;;;;;;;;5043867;28;20208;-72
2023/06/24 01:29:02;;;;;;;5.03;3.10;;;;;;;;;;5038970;28;20057;-71
2023/06/24 01:31:40;;;;;;;;;;;;;;;;;;5041790;28;20060;-70
2023/06/24 01:34:14;;;;;;;5.05;2.85;;;;;;;;;;5039280;28;19929;-70
2023/06/24 01:36:44;;;;;;;;;;;;;;;;;;5040406;28;20398;-71
2023/06/24 01:39:12;;;;;;;9.73;2.78;;;;;;;;;;5043759;28;19928;-71
2023/06/24 01:41:47;;;;;;;4.82;3.00;;;;;;;;;;5039490;28;20079;-70
2023/06/24 01:44:18;;;;;;;8.07;3.28;;;;;;;;;;5038501;28;20075;-70
2023/06/24 01:46:50;;;;;;;7.40;3.65;;;;;;;;;;5042095;28;20049;-71
2023/06/24 01:49:19;;;;;;;6.22;3.90;;;;;;;;;;5043909;28;20131;-72
2023/06/24 01:51:47;;;;;;;6.65;3.67;;;;;;;;;;5037666;28;20060;-71
2023/06/24 01:54:19;;;;;;;9.05;3.83;;;;;;;;;;5040593;28;20392;-70
2023/06/24 01:56:47;;;;;;;6.68;3.50;;;;;;;;;;5046206;28;20049;-71
2023/06/24 01:59:16;;;;;;;8.15;3.70;;;;;;;;;;5039241;28;20400;-70
2023/06/24 02:01:44;;;;;;;5.32;3.50;;;;;;;;;;5042656;28;20121;-71
2023/06/24 02:04:11;;;;;;;7.65;3.67;;;;;;;;;;5071737;28;20040;-72
2023/06/24 02:06:40;;;;;;;6.45;3.50;;;;;;;;;;5084593;28;20052;-71
2023/06/24 02:09:07;;;;;;;6.70;3.53;;;;;;;;;;5082402;28;20495;-73
2023/06/24 02:11:35;;;;;;;5.50;3.50;;;;;;;;;;5076818;28;20053;-70
2023/06/24 02:14:05;;;;;;;6.35;3.38;;;;;;;;;;5088030;28;20079;-73
2023/06/24 02:16:35;;;;;;;4.93;3.30;;;;;;;;;;5093077;28;20415;-71
2023/06/24 02:19:02;;;;;;;6.70;3.47;;;;;;;;;;5083918;28;20063;-73
2023/06/24 02:21:29;;;;;;;7.88;3.50;;;;;;;;;;5085609;28;20058;-72
2023/06/24 02:23:58;;;;;;;6.43;3.53;;;;;;;;;;5087688;28;20071;-73
2023/06/24 02:26:26;;;;;;;7.30;3.30;;;;;;;;;;5081833;28;20392;-72
2023/06/24 02:28:54;;;;;;;6.53;3.67;;;;;;;;;;5087741;28;20060;-72
2023/06/24 02:31:20;;;;;;;5.45;3.40;;;;;;;;;;5081727;28;20051;-71
2023/06/24 02:33:46;;;;;;;6.10;3.28;;;;;;;;;;5092576;28;20052;-71
2023/06/24 02:36:12;;;;;;;7.75;3.50;;;;;;;;;;5083710;28;20040;-73
2023/06/24 02:38:38;;;;;;;5.32;3.00;;;;;;;;;;5085464;28;20043;-72
2023/06/24 02:41:04;;;;;;;6.22;3.63;;;;;;;;;;5067043;28;20109;-71
2023/06/24 02:43:31;;;;;;;6.57;3.60;;;;;;;;;;5079723;28;20048;-72
2023/06/24 02:46:01;;;;;;;7.32;3.70;;;;;;;;;;5082198;28;20040;-72
2023/06/24 02:48:30;;;;;;;6.60;3.42;;;;;;;;;;5084909;28;20120;-73
2023/06/24 02:50:59;;;;;;;7.13;3.55;;;;;;;;;;5078165;28;20040;-70
2023/06/24 02:53:25;;;;;;;13.13;4.03;;;;;;;;;;5080076;28;20040;-73
2023/06/24 02:55:54;;;;;;;9.65;3.90;;;;;;;;;;5079506;28;20086;-70
2023/06/24 02:58:21;;;;;;;6.78;3.55;;;;;;;;;;5081717;28;20060;-72
2023/06/24 03:01:27;;;;;;;6.22;3.60;;;;;;;;;;5081383;28;20101;-71
2023/06/24 03:05:07;;;;;;;8.00;3.28;;;;;;;;;;5082357;28;20044;-72
2023/06/24 03:08:47;;;;;;;7.82;3.63;;;;;;;;;;5081430;28;20028;-73
2023/06/24 03:12:28;;;;;;;6.22;3.50;;;;;;;;;;5093880;28;20138;-72
2023/06/24 03:16:12;;;;;;;7.07;3.42;;;;;;;;;;5106817;27;20051;-71
2023/06/24 03:19:51;;;;;;;7.03;3.20;;;;;;;;;;5099060;27;20035;-71
2023/06/24 03:23:31;;;;;;;5.95;3.17;;;;;;;;;;5100075;27;20143;-73
2023/06/24 03:27:15;;;;;;;4.97;3.22;;;;;;;;;;5109933;27;20039;-72
2023/06/24 03:30:55;;;;;;;5.88;3.00;;;;;;;;;;5089979;28;20458;-74
2023/06/24 03:34:35;;;;;;;4.93;2.92;;;;;;;;;;5091487;28;20317;-71
2023/06/24 03:38:16;;;;;;;4.55;2.95;;;;;;;;;;5097286;28;20517;-71
2023/06/24 03:41:56;;;;;;;6.20;3.30;;;;;;;;;;5103178;28;20043;-73
2023/06/24 03:45:36;;;;;;;5.78;3.30;;;;;;;;;;5101765;28;20400;-71
2023/06/24 03:49:17;;;;;;;11.38;4.22;;;;;;;;;;5097705;28;20036;-71
2023/06/24 03:52:57;;;;;;;8.13;4.38;;;;;;;;;;5103237;28;20127;-73
2023/06/24 03:56:37;;;;;;;9.13;4.70;;;;;;;;;;5090057;28;20043;-72
2023/06/24 04:00:20;;;;;;;12.93;4.68;;;;;;;;;;5081296;28;20218;-72
2023/06/24 04:03:58;;;;;;;7.95;4.55;;;;;;;;;;5101237;28;20063;-72
2023/06/24 04:07:40;;;;;;;14.85;4.18;;;;;;;;;;5095094;28;20044;-71
2023/06/24 04:11:20;;;;;;;11.65;4.20;;;;;;;;;;5087561;28;20101;-71
2023/06/24 04:15:00;;;;;;;7.50;4.20;;;;;;;;;;5093074;28;20067;-71
2023/06/24 04:18:41;;;;;;;8.85;4.03;;;;;;;;;;5096765;28;20383;-74
2023/06/24 04:22:21;;;;;;;10.13;4.07;;;;;;;;;;5098147;28;20058;-72
2023/06/24 04:26:01;;;;;;;9.45;3.78;;;;;;;;;;5109604;28;20050;-72
2023/06/24 04:29:43;;;;;;;8.00;3.97;;;;;;;;;;5089571;28;20337;-71
2023/06/24 04:33:24;;;;;;;11.55;4.40;;;;;;;;;;5097301;28;20100;-72
2023/06/24 04:37:04;;;;;;;14.10;4.50;;;;;;;;;;5103465;28;20108;-71
2023/06/24 04:40:45;;;;;;;6.65;3.90;;;;;;;;;;5109002;28;20066;-70
2023/06/24 04:44:24;;;;;;;8.30;4.03;;;;;;;;;;5100517;27;20419;-71
2023/06/24 04:48:05;;;;;;;12.35;4.05;;;;;;;;;;5091961;28;20054;-71
2023/06/24 04:51:45;;;;;;;5.68;3.80;;;;;;;;;;5097742;28;20047;-72
2023/06/24 04:55:25;;;;;;;8.02;3.70;;;;;;;;;;5101004;28;20040;-72
2023/06/24 04:59:06;;;;;;;9.20;4.00;;;;;;;;;;5101719;27;20075;-72
2023/06/24 05:02:46;;;;;;;9.63;4.35;;;;;;;;;;5104928;27;20444;-73
2023/06/24 05:06:26;;;;;;;10.30;4.22;;;;;;;;;;5094997;28;20066;-72
2023/06/24 05:10:07;;;;;;;7.82;4.28;;;;;;;;;;5101838;28;20373;-72
2023/06/24 05:13:47;;;;;;;9.82;4.35;;;;;;;;;;5091756;28;20048;-72
2023/06/24 05:17:28;;;;;;;10.45;4.07;;;;;;;;;;5105007;28;20055;-72
2023/06/24 05:21:08;;;;;;;8.27;4.25;;;;;;;;;;5105602;28;20039;-71
2023/06/24 05:24:49;;;;;;;11.23;4.43;;;;;;;;;;5108557;27;20090;-75
2023/06/24 05:28:29;;;;;;;8.00;4.25;;;;;;;;;;5081945;28;20051;-69
2023/06/24 05:32:09;;;;;;;12.40;4.05;;;;;;;;;;5102771;27;20054;-72
2023/06/24 05:35:50;;;;;;;10.27;4.90;;;;;;;;;;5104861;27;20050;-73
2023/06/24 05:39:30;;;;;;;10.18;4.53;;;;;;;;;;5110720;27;20489;-73
2023/06/24 05:43:10;;;;;;;10.50;4.60;;;;;;;;;;5100895;27;20043;-71
2023/06/24 05:46:51;;;;;;;13.55;4.65;;;;;;;;;;5104735;27;20067;-73
2023/06/24 05:50:31;;;;;;;9.48;4.38;;;;;;;;;;5106230;27;20432;-72
2023/06/24 05:54:11;;;;;;;12.23;4.53;;;;;;;;;;5101259;28;20062;-72
2023/06/24 05:57:53;;;;;;;8.13;4.10;;;;;;;;;;5097142;28;20059;-73
2023/06/24 06:01:35;;;;;;;8.55;4.13;;;;;;;;;;5097036;28;20040;-73
2023/06/24 06:05:15;;;;;;;10.13;4.00;;;;;;;;;;5102832;27;20070;-73
2023/06/24 06:08:55;;;;;;;12.63;4.25;;;;;;;;;;5091187;28;20044;-74
2023/06/24 06:12:36;;;;;;;10.38;3.30;;;;;;;;;;5102364;28;20055;-72
2023/06/24 06:16:16;;;;;;;5.28;3.30;;;;;;;;;;5105910;27;20067;-71
2023/06/24 06:19:57;;;;;;;9.45;3.50;;;;;;;;;;5087451;28;20080;-73
2023/06/24 06:23:38;;;;;;;9.85;3.92;;;;;;;;;;5101473;27;20043;-76
2023/06/24 06:27:23;;;;;;;9.30;3.47;;;;;;;;;;5103864;27;20158;-71
2023/06/24 06:31:03;;;;;;;9.85;4.13;;;;;;;;;;5097851;27;20422;-73
2023/06/24 06:34:43;;;;;;;7.15;3.83;;;;;;;;;;5096450;27;20122;-73
2023/06/24 06:38:24;;;;;;;7.07;3.17;;;;;;;;;;5090242;28;20043;-72
2023/06/24 06:42:06;;;;;;;12.05;3.63;;;;;;;;;;5105711;27;20042;-73
2023/06/24 06:45:46;;;;;;;8.45;3.38;;;;;;;;;;5104804;27;20130;-72
2023/06/24 06:49:27;;;;;;;7.90;3.70;;;;;;;;;;5094703;28;20120;-73
2023/06/24 06:53:08;;;;;;;8.63;3.17;;;;;;;;;;5098069;28;20484;-72
2023/06/24 06:56:48;;;;;;;6.75;2.85;;;;;;;;;;5099690;27;20039;-74
2023/06/24 07:00:28;;;;;;;3.63;2.47;;;;;;;;;;5089401;28;20435;-73
2023/06/24 07:04:09;;;;;;;6.55;3.17;;;;;;;;;;5101173;28;20238;-73
2023/06/24 07:07:50;;;;;;;6.78;3.03;;;;;;;;;;5103583;27;20055;-73
2023/06/24 07:11:31;;;;;;;4.45;2.35;;;;;;;;;;5086346;28;20058;-72
2023/06/24 07:15:11;;;;;;;7.55;2.95;;;;;;;;;;5102812;28;20063;-73
2023/06/24 07:18:52;;;;;;;8.18;3.20;;;;;;;;;;5086334;28;20052;-75
2023/06/24 07:22:32;;;;;;;8.73;2.80;;;;;;;;;;5106480;28;20130;-75
2023/06/24 07:26:13;;;;;;;7.78;2.88;;;;;;;;;;5096621;27;20100;-74
2023/06/24 07:29:54;;;;;;;8.30;3.35;;;;;;;;;;5090673;28;20044;-75
2023/06/24 07:33:34;;;;;;;6.85;3.20;;;;;;;;;;5083313;28;20055;-73
2023/06/24 07:37:16;;;;;;;10.35;3.30;;;;;;;;;;5095182;28;20051;-75
2023/06/24 07:40:56;;;;;;;8.90;3.75;;;;;;;;;;5103279;28;20144;-76
2023/06/24 07:44:39;;;;;;;12.05;3.22;;;;;;;;;;5093548;28;20248;-77
2023/06/24 07:48:16;;;;;;;10.13;4.10;;;;;;;;;;5097911;28;20067;-73
2023/06/24 07:51:57;;;;;;;7.78;4.20;;;;;;;;;;5098812;28;20059;-74
2023/06/24 07:55:38;;;;;;;8.02;3.85;;;;;;;;;;5093350;28;20043;-75
2023/06/24 07:59:18;;;;;;;9.20;4.18;;;;;;;;;;5101191;28;20040;-73
2023/06/24 08:02:59;;;;;;;8.45;3.47;;;;;;;;;;5088961;28;21075;-75
2023/06/24 08:06:40;;;;;;;8.27;4.43;;;;;;;;;;5093601;28;20415;-73
2023/06/24 08:10:20;;;;;;;9.27;3.63;;;;;;;;;;5094351;28;20487;-74
2023/06/24 08:14:01;;;;;;;10.48;3.65;;;;;;;;;;5100318;28;20224;-75
2023/06/24 08:17:41;;;;;;;6.75;3.33;;;;;;;;;;5100329;27;20422;-74
2023/06/24 08:21:21;;;;;;;6.32;3.63;;;;;;;;;;5102269;28;20054;-77
2023/06/24 08:25:01;;;;;;;6.88;3.47;;;;;;;;;;5099872;28;20123;-78
2023/06/24 08:28:42;;;;;;;8.60;3.30;;;;;;;;;;5110216;27;20082;-71
2023/06/24 08:32:22;;;;;;;6.95;3.33;;;;;;;;;;5102539;27;20058;-73
2023/06/24 08:36:02;;;;;;;9.75;3.78;;;;;;;;;;5103668;27;20047;-74
2023/06/24 08:39:43;;;;;;;5.00;3.33;;;;;;;;;;5108142;27;20513;-74
2023/06/24 08:43:23;;;;;;;7.53;3.80;;;;;;;;;;5105934;28;20039;-74
2023/06/24 08:47:03;;;;;;;5.90;3.50;;;;;;;;;;5109534;27;20237;-74
2023/06/24 08:50:44;;;;;;;7.15;3.42;;;;;;;;;;5096589;27;20050;-75
2023/06/24 08:54:27;;;;;;;8.57;4.18;;;;;;;;;;5104178;28;20252;-75
2023/06/24 08:58:07;;;;;;;8.13;4.43;;;;;;;;;;5099616;27;20071;-75
2023/06/24 09:01:50;;;;;;;10.73;4.45;;;;;;;;;;5088904;28;20107;-76
2023/06/24 09:05:32;;;;;;;9.10;4.30;;;;;;;;;;5109039;27;20050;-76
2023/06/24 09:09:13;;;;;;;9.30;4.55;;;;;;;;;;5113059;28;21164;-75
2023/06/24 09:12:54;;;;;;;7.55;3.75;;;;;;;;;;5091770;28;20329;-76
2023/06/24 09:16:34;;;;;;;7.65;3.50;;;;;;;;;;5100724;27;20105;-74
2023/06/24 09:20:19;;;;;;;5.40;3.08;;;;;;;;;;5100106;27;20065;-73
2023/06/24 09:23:57;;;;;;;7.50;3.40;;;;;;;;;;5098793;28;20056;-75
2023/06/24 09:27:37;;;;;;;10.25;5.05;;;;;;;;;;5106821;27;20486;-74
2023/06/24 09:31:28;;;;;;;8.38;3.80;;;;;;;;;;5105061;28;20059;-72
2023/06/24 09:35:10;;;;;;;6.20;3.58;;;;;;;;;;5103787;27;20104;-73
2023/06/24 09:38:57;;;;;;;9.30;3.78;;;;;;;;;;5105777;27;20399;-73
2023/06/24 09:42:37;;;;;;;6.32;3.40;;;;;;;;;;5097417;27;20044;-75
2023/06/24 09:46:18;;;;;;;6.32;3.80;;;;;;;;;;5102153;27;20550;-74
2023/06/24 09:49:58;;;;;;;9.20;4.10;;;;;;;;;;5103112;27;20044;-76
2023/06/24 09:53:38;;;;;;;8.50;3.70;;;;;;;;;;5103218;28;20043;-71
2023/06/24 09:57:25;;;;;;;8.88;3.63;;;;;;;;;;5101079;28;20176;-76
2023/06/24 10:01:05;;;;;;;7.47;3.70;;;;;;;;;;5104091;27;20047;-73
2023/06/24 10:04:48;;;;;;;6.55;3.05;;;;;;;;;;5104512;28;20631;-75
2023/06/24 10:08:29;;;;;;;7.20;3.47;;;;;;;;;;5105632;27;20071;-74
2023/06/24 10:12:09;;;;;;;6.78;3.17;;;;;;;;;;5104459;27;20135;-75
2023/06/24 10:15:49;;;;;;;8.98;3.40;;;;;;;;;;5098466;28;20048;-75
2023/06/24 10:19:30;;;;;;;7.82;3.35;;;;;;;;;;5096577;28;20483;-74
2023/06/24 10:23:10;;;;;;;6.30;3.17;;;;;;;;;;5105673;27;20043;-74
2023/06/24 10:26:52;;;;;;;5.22;2.83;;;;;;;;;;5099233;28;20050;-72
2023/06/24 10:30:38;;;;;;;5.97;3.00;;;;;;;;;;5096650;28;20047;-73
2023/06/24 10:34:19;;;;;;;5.15;2.92;;;;;;;;;;5102666;28;20474;-74
2023/06/24 10:37:59;;;;;;;7.53;2.90;;;;;;;;;;5107182;28;20040;-75
2023/06/24 10:41:40;;;;;;;11.15;2.85;;;;;;;;;;5106651;27;20461;-74
2023/06/24 10:45:10;;;;;;;6.15;3.00;;;;;;;;;;5102019;28;20046;-75
2023/06/24 10:48:50;;;;;;;4.32;2.90;;;;;;;;;;5108276;27;20036;-74
2023/06/24 10:52:30;;;;;;;5.25;2.97;;;;;;;;;;5094389;28;20062;-72
2023/06/24 10:56:13;;;;;;;6.90;3.00;;;;;;;;;;5088845;28;20243;-73
2023/06/24 10:59:39;;;;;;;7.68;3.15;;;;;;;;;;5102135;28;20086;-74
2023/06/24 11:03:29;;;;;;;5.88;3.55;;;;;;;;;;5105591;28;20079;-74
2023/06/24 11:07:17;;;;;;;10.38;4.45;;;;;;;;;;5106602;28;20067;-74
2023/06/24 11:11:04;;;;;;;5.50;3.05;;;;;;;;;;5090805;27;20077;-73
2023/06/24 11:14:44;;;;;;;3.65;2.55;;;;;;;;;;5076331;28;20067;-74
2023/06/24 11:18:25;;;;;;;4.63;2.80;;;;;;;;;;5085869;28;20091;-74
2023/06/24 11:21:31;;;;;;;8.05;3.03;;;;;;;;;;5082158;28;20564;-74
2023/06/24 11:24:41;;;;;;;9.75;2.92;;;;;;;;;;5083415;28;20048;-74
2023/06/24 11:28:20;;;;;;;5.78;2.53;;;;;;;;;;5086532;28;20055;-74
2023/06/24 11:32:07;;;;;;;4.03;2.60;;;;;;;;;;5085683;28;20067;-73
2023/06/24 11:35:47;;;;;;;4.82;2.53;;;;;;;;;;5082847;28;20522;-74
2023/06/24 11:39:28;;;;;;;5.10;2.60;;;;;;;;;;5075204;28;20040;-73
2023/06/24 11:43:08;;;;;;;5.18;2.78;;;;;;;;;;5080141;28;20044;-74
2023/06/24 11:46:49;;;;;;;5.63;2.72;;;;;;;;;;5084398;28;20234;-74
2023/06/24 11:50:32;;;;;;;4.72;2.95;;;;;;;;;;5082910;28;20043;-73
2023/06/24 11:54:23;;;;;;;7.30;2.60;;;;;;;;;;5084278;28;20411;-76
2023/06/24 11:57:54;;;;;;;4.55;2.67;;;;;;;;;;5090476;28;20056;-78
2023/06/24 12:01:31;;;;;;;4.15;2.70;;;;;;;;;;5090021;28;21560;-74
2023/06/24 12:04:13;;;;;;;7.13;2.50;;;;;;;;;;5087536;28;20051;-75
2023/06/24 12:07:18;;;;;;;3.50;2.35;;;;;;;;;;5095078;28;20056;-74
2023/06/24 12:10:59;;;;;;;3.85;2.20;;;;;;;;;;5088616;28;20188;-76
2023/06/24 12:14:39;;;;;;;4.70;2.50;;;;;;;;;;5092325;28;20059;-75
2023/06/24 12:18:20;;;;;;;3.90;2.45;;;;;;;;;;5094532;28;20047;-73
2023/06/24 12:22:15;;;;;;;4.15;2.70;;;;;;;;;;5114843;27;20044;-76
2023/06/24 12:25:56;;;;;;;4.35;2.70;;;;;;;;;;5103774;28;20090;-73
2023/06/24 12:29:36;;;;;;;3.70;2.30;;;;;;;;;;5096653;28;20048;-72
2023/06/24 12:33:19;;;;;;;7.38;2.58;;;;;;;;;;5094949;28;20050;-72
2023/06/24 12:36:57;;;;;;;8.68;2.60;;;;;;;;;;5104217;28;20097;-73
2023/06/24 12:40:39;;;;;;;6.60;2.80;;;;;;;;;;5100596;27;20435;-73
2023/06/24 12:44:19;;;;;;;5.45;2.65;;;;;;;;;;5110471;27;20052;-73
2023/06/24 12:47:59;;;;;;;6.78;2.40;;;;;;;;;;5095676;28;20157;-74
2023/06/24 12:51:39;;;;;;;6.50;2.55;;;;;;;;;;5100470;27;20047;-76
2023/06/24 12:55:21;;;;;;;5.55;2.38;;;;;;;;;;5104455;28;20465;-74
2023/06/24 12:59:03;;;;;;;5.20;2.08;;;;;;;;;;5099191;28;20048;-74
2023/06/24 13:02:43;;;;;;;10.13;2.70;;;;;;;;;;5101601;28;20077;-74
2023/06/24 13:06:23;;;;;;;6.15;2.70;;;;;;;;;;5099872;28;20081;-73
2023/06/24 13:10:05;;;;;;;5.45;2.88;;;;;;;;;;5110232;27;20043;-73
2023/06/24 13:13:44;;;;;;;8.00;2.72;;;;;;;;;;5098106;28;20051;-74
2023/06/24 13:17:24;;;;;;;8.07;2.45;;;;;;;;;;5093010;27;20075;-72
2023/06/24 13:21:05;;;;;;;5.93;2.65;;;;;;;;;;5098799;27;20343;-72
2023/06/24 13:24:45;;;;;;;4.30;2.50;;;;;;;;;;5103591;27;20189;-73
2023/06/24 13:28:28;;;;;;;4.03;2.20;;;;;;;;;;5090731;27;20134;-73
2023/06/24 13:32:08;;;;;;;6.95;2.92;;;;;;;;;;5106716;27;20035;-71
2023/06/24 13:35:51;;;;;;;6.57;2.70;;;;;;;;;;5105960;27;20036;-72
2023/06/24 13:39:32;;;;;;;5.78;3.22;;;;;;;;;;5104357;27;20073;-74
2023/06/24 13:43:13;;;;;;;6.97;2.90;;;;;;;;;;5102439;28;20130;-73
2023/06/24 13:46:55;;;;;;;8.27;2.53;;;;;;;;;;5111905;27;20055;-74
2023/06/24 13:50:35;;;;;;;8.73;2.83;;;;;;;;;;5105606;27;20092;-72
2023/06/24 13:54:15;;;;;;;5.43;2.42;;;;;;;;;;5108967;27;20043;-75
2023/06/24 13:57:57;;;;;;;9.93;2.67;;;;;;;;;;5090473;27;20050;-72
2023/06/24 14:01:37;;;;;;;6.18;2.45;;;;;;;;;;5105952;27;20047;-71
2023/06/24 14:05:17;;;;;;;8.52;2.72;;;;;;;;;;5103985;28;20043;-71
2023/06/24 14:08:58;;;;;;;6.70;2.75;;;;;;;;;;5103623;28;20085;-71
2023/06/24 14:12:37;;;;;;;5.75;2.92;;;;;;;;;;5099649;28;20059;-73
2023/06/24 14:15:45;;;;;;;9.07;2.70;;;;;;;;;;5093490;27;20047;-71
2023/06/24 14:18:46;;;;;;;9.63;2.70;;;;;;;;;;5101155;27;20062;-73
2023/06/24 14:21:53;;;;;;;8.98;2.78;;;;;;;;;;5109982;27;20097;-72
2023/06/24 14:25:33;;;;;;;13.93;2.75;;;;;;;;;;5109000;27;20054;-74
2023/06/24 14:29:13;;;;;;;7.85;2.70;;;;;;;;;;5100644;28;20083;-73
2023/06/24 14:32:54;;;;;;;9.45;3.20;;;;;;;;;;5108586;27;20035;-71
2023/06/24 14:36:34;;;;;;;9.45;3.03;;;;;;;;;;5090012;28;20048;-72
2023/06/24 14:40:15;;;;;;;12.13;3.28;;;;;;;;;;5101447;27;20036;-72
2023/06/24 14:43:57;;;;;;;14.75;3.15;;;;;;;;;;5103650;27;20043;-72
2023/06/24 14:47:38;;;;;;;9.00;3.17;;;;;;;;;;5085681;28;20047;-72
2023/06/24 14:51:19;;;;;;;16.35;3.50;;;;;;;;;;5095309;28;20132;-73
2023/06/24 14:54:59;;;;;;;11.25;3.05;;;;;;;;;;5094700;27;20048;-72
2023/06/24 14:58:41;;;;;;;8.07;3.17;;;;;;;;;;5100231;27;20039;-73
2023/06/24 15:02:24;;;;;;;15.23;3.15;;;;;;;;;;5101692;27;20043;-73
2023/06/24 15:06:03;;;;;;;8.00;3.45;;;;;;;;;;5088060;28;20048;-74
2023/06/24 15:09:43;;;;;;;8.27;3.03;;;;;;;;;;5096564;28;20043;-73
2023/06/24 15:13:24;;;;;;;10.02;3.15;;;;;;;;;;5102663;28;20062;-71
2023/06/24 15:17:04;;;;;;;9.02;3.38;;;;;;;;;;5097989;28;20048;-71
2023/06/24 15:20:45;;;;;;;8.32;3.58;;;;;;;;;;5095064;28;20048;-71
2023/06/24 15:24:25;;;;;;;12.75;3.38;;;;;;;;;;5096703;28;20039;-71
2023/06/24 15:28:05;;;;;;;6.78;3.00;;;;;;;;;;5103865;28;20549;-72
2023/06/24 15:31:48;;;;;;;9.93;3.47;;;;;;;;;;5097417;28;20035;-71
2023/06/24 15:35:29;;;;;;;10.82;3.40;;;;;;;;;;5092932;28;20051;-72
2023/06/24 15:39:10;;;;;;;16.63;3.72;;;;;;;;;;5105468;28;20051;-71
2023/06/24 15:42:51;;;;;;;10.10;3.70;;;;;;;;;;5099651;28;20112;-72
2023/06/24 15:46:33;;;;;;;9.70;3.08;;;;;;;;;;5100351;28;20043;-74
2023/06/24 15:50:14;;;;;;;10.57;3.55;;;;;;;;;;5100578;28;20123;-74
2023/06/24 15:53:54;;;;;;;14.90;3.33;;;;;;;;;;5104213;28;20240;-72
2023/06/24 15:57:34;;;;;;;11.25;3.78;;;;;;;;;;5093156;28;20129;-72
2023/06/24 16:01:15;;;;;;;9.63;3.47;;;;;;;;;;5102088;28;20050;-71
2023/06/24 16:04:56;;;;;;;10.15;3.70;;;;;;;;;;5098744;28;20040;-72
2023/06/24 16:08:38;;;;;;;10.13;3.40;;;;;;;;;;5104250;28;20071;-71
2023/06/24 16:12:18;;;;;;;12.45;3.30;;;;;;;;;;5093700;28;20050;-71
2023/06/24 16:15:59;;;;;;;8.13;3.20;;;;;;;;;;5097134;28;20418;-69
2023/06/24 16:19:39;;;;;;;7.55;3.22;;;;;;;;;;5098349;28;20124;-71
2023/06/24 16:23:19;;;;;;;11.90;3.30;;;;;;;;;;5104492;28;20117;-72
2023/06/24 16:27:01;;;;;;;9.60;3.17;;;;;;;;;;5088344;28;20048;-73
2023/06/24 16:30:41;;;;;;;10.88;3.38;;;;;;;;;;5092512;28;20099;-73
2023/06/24 16:34:23;;;;;;;11.43;3.75;;;;;;;;;;5100421;28;20508;-73
2023/06/24 16:38:04;;;;;;;14.32;3.38;;;;;;;;;;5083006;28;20120;-71
2023/06/24 16:41:44;;;;;;;6.45;3.10;;;;;;;;;;5099487;28;20051;-73
2023/06/24 16:45:24;;;;;;;14.13;3.85;;;;;;;;;;5104649;28;20244;-72
2023/06/24 16:49:06;;;;;;;8.60;3.40;;;;;;;;;;5091053;27;20126;-72
2023/06/24 16:52:45;;;;;;;7.55;2.97;;;;;;;;;;5097974;28;20509;-73
2023/06/24 16:56:25;;;;;;;9.18;4.03;;;;;;;;;;5101710;28;20063;-73
2023/06/24 17:00:07;;;;;;;16.00;3.67;;;;;;;;;;5101719;28;20043;-71
2023/06/24 17:03:47;;;;;;;8.60;3.10;;;;;;;;;;5107098;28;20343;-74
2023/06/24 17:07:29;;;;;;;10.20;3.25;;;;;;;;;;5094035;28;20487;-73
2023/06/24 17:11:10;;;;;;;10.13;3.42;;;;;;;;;;5110000;28;20046;-73
2023/06/24 17:14:50;;;;;;;6.97;3.15;;;;;;;;;;5089820;28;20050;-71
2023/06/24 17:18:31;;;;;;;11.80;3.30;;;;;;;;;;5105273;28;20059;-73
2023/06/24 17:22:11;;;;;;;9.02;2.97;;;;;;;;;;5106831;28;20088;-75
2023/06/24 17:25:51;;;;;;;7.55;3.35;;;;;;;;;;5103530;28;20055;-72
2023/06/24 17:29:32;;;;;;;8.68;3.35;;;;;;;;;;5101066;28;20064;-73
2023/06/24 17:33:13;;;;;;;7.47;3.30;;;;;;;;;;5108280;28;20051;-73
2023/06/24 17:36:53;;;;;;;10.88;3.45;;;;;;;;;;5107934;28;20043;-74
2023/06/24 17:40:34;;;;;;;12.23;3.10;;;;;;;;;;5102687;28;20040;-73
2023/06/24 17:44:14;;;;;;;10.95;3.30;;;;;;;;;;5105156;28;20055;-72
2023/06/24 17:47:54;;;;;;;8.50;3.47;;;;;;;;;;5099898;27;20039;-70
2023/06/24 17:51:35;;;;;;;6.85;3.38;;;;;;;;;;5099381;28;20059;-72
2023/06/24 17:55:16;;;;;;;6.30;3.35;;;;;;;;;;5105597;27;20126;-72
2023/06/24 17:58:56;;;;;;;11.18;4.10;;;;;;;;;;5102764;28;20047;-76
2023/06/24 18:02:37;;;;;;;11.20;3.95;;;;;;;;;;5104535;28;20067;-73
2023/06/24 18:06:18;;;;;;;9.00;3.60;;;;;;;;;;5106339;28;20728;-72
2023/06/24 18:09:58;;;;;;;10.25;3.53;;;;;;;;;;5102479;28;20718;-72
2023/06/24 18:13:39;;;;;;;7.25;3.20;;;;;;;;;;5109837;28;20116;-72
2023/06/24 18:17:19;;;;;;;9.57;3.58;;;;;;;;;;5105385;28;20463;-75
2023/06/24 18:21:00;;;;;;;13.55;3.88;;;;;;;;;;5102695;28;20075;-73
2023/06/24 18:24:42;;;;;;;8.30;3.38;;;;;;;;;;5106809;27;20043;-73
2023/06/24 18:28:22;;;;;;;7.55;3.38;;;;;;;;;;5105359;28;20047;-72
2023/06/24 18:32:04;;;;;;;8.50;3.25;;;;;;;;;;5099555;28;20047;-76
2023/06/24 18:35:45;;;;;;;9.43;3.35;;;;;;;;;;5103044;28;20058;-74
2023/06/24 18:39:26;;;;;;;10.23;3.33;;;;;;;;;;5104662;28;20040;-74
2023/06/24 18:43:06;;;;;;;9.13;3.45;;;;;;;;;;5102443;28;20054;-74
2023/06/24 18:46:46;;;;;;;10.48;3.95;;;;;;;;;;5101201;28;20043;-73
2023/06/24 18:50:27;;;;;;;10.75;3.55;;;;;;;;;;5101468;28;20055;-72
2023/06/24 18:54:07;;;;;;;9.55;3.40;;;;;;;;;;5102039;28;20513;-72
2023/06/24 18:57:50;;;;;;;8.20;3.70;;;;;;;;;;5100898;28;20135;-72
2023/06/24 19:01:30;;;;;;;12.38;3.90;;;;;;;;;;5105650;28;20054;-75
2023/06/24 19:05:11;;;;;;;10.05;3.97;;;;;;;;;;5101643;28;20119;-73
2023/06/24 19:08:52;;;;;;;13.98;4.78;;;;;;;;;;5108085;28;20039;-74
2023/06/24 19:12:33;;;;;;;9.10;3.80;;;;;;;;;;5098019;28;20057;-75
2023/06/24 19:16:13;;;;;;;10.18;3.85;;;;;;;;;;5105995;27;20136;-72
2023/06/24 19:19:55;;;;;;;10.13;3.97;;;;;;;;;;5115963;27;20300;-73
2023/06/24 19:23:38;;;;;;;11.93;3.92;;;;;;;;;;5110801;27;20035;-73
2023/06/24 19:27:18;;;;;;;14.02;4.40;;;;;;;;;;5111332;27;20047;-75
2023/06/24 19:31:00;;;;;;;16.55;3.80;;;;;;;;;;5104826;28;20043;-73
2023/06/24 19:34:42;;;;;;;12.00;4.72;;;;;;;;;;5106903;28;20447;-72
2023/06/24 19:38:23;;;;;;;14.77;5.03;;;;;;;;;;5116788;27;20043;-75
2023/06/24 19:42:04;;;;;;;13.93;4.63;;;;;;;;;;5121793;27;20633;-73
2023/06/24 19:45:44;;;;;;;12.70;4.05;;;;;;;;;;5108305;28;20054;-73
2023/06/24 19:49:24;;;;;;;9.88;3.83;;;;;;;;;;5116123;28;20096;-74
2023/06/24 19:53:06;;;;;;;11.25;4.07;;;;;;;;;;5097858;28;20044;-74
2023/06/24 19:56:46;;;;;;;11.60;4.40;;;;;;;;;;5099564;28;20312;-73
2023/06/24 20:00:27;;;;;;;11.38;4.30;;;;;;;;;;5112642;28;20152;-73
2023/06/24 20:04:07;;;;;;;20.50;4.32;;;;;;;;;;5099873;28;20043;-75
2023/06/24 20:07:47;;;;;;;11.40;4.47;;;;;;;;;;5111065;28;20051;-73
2023/06/24 20:11:28;;;;;;;16.65;4.25;;;;;;;;;;5094811;27;20678;-74
2023/06/24 20:15:08;;;;;;;13.88;4.70;;;;;;;;;;5116498;27;20039;-72
2023/06/24 20:18:49;;;;;;;13.43;4.40;;;;;;;;;;5110543;27;20047;-72
2023/06/24 20:22:29;;;;;;;12.77;4.28;;;;;;;;;;5103197;28;20063;-74
2023/06/24 20:26:09;;;;;;;15.23;4.38;;;;;;;;;;5110877;27;20445;-72
2023/06/24 20:29:49;;;;;;;15.07;4.55;;;;;;;;;;5104427;27;20040;-74